createdAt,value
2023-05-10T00:00:19.911Z,18.13
2023-05-10T00:00:51.805Z,19.17
2023-05-10T00:01:23.442Z,15.75
2023-05-10T00:01:55.561Z,17.50
2023-05-10T00:02:27.778Z,16.20
2023-05-10T00:02:59.325Z,20.50
2023-05-10T00:03:30.845Z,20.60
2023-05-10T00:04:02.327Z,21.63
2023-05-10T00:04:33.797Z,19.20
2023-05-10T00:05:06.129Z,18.55
2023-05-10T00:05:37.560Z,22.00
2023-05-10T00:06:09.052Z,21.02
2023-05-10T00:06:40.460Z,17.55
2023-05-10T00:07:11.844Z,18.43
2023-05-10T00:07:45.751Z,17.50
2023-05-10T00:08:17.309Z,21.08
2023-05-10T00:08:48.710Z,17.60
2023-05-10T00:09:20.232Z,18.13
2023-05-10T00:09:51.707Z,18.55
2023-05-10T00:10:23.382Z,20.20
2023-05-10T00:10:54.811Z,21.92
2023-05-10T00:11:26.337Z,19.42
2023-05-10T00:11:59.550Z,16.90
2023-05-10T00:12:30.969Z,18.10
2023-05-10T00:13:02.578Z,18.75
2023-05-10T00:13:34.209Z,20.55
2023-05-10T00:14:05.843Z,16.05
2023-05-10T00:14:37.234Z,19.58
2023-05-10T00:15:09.862Z,18.48
2023-05-10T00:15:41.322Z,19.88
2023-05-10T00:16:14.022Z,19.08
2023-05-10T00:16:46.265Z,20.05
2023-05-10T00:17:17.787Z,18.33
2023-05-10T00:17:49.318Z,22.93
2023-05-10T00:18:20.878Z,19.33
2023-05-10T00:18:52.358Z,18.63
2023-05-10T00:19:23.806Z,18.55
2023-05-10T00:19:55.453Z,19.20
2023-05-10T00:20:26.879Z,18.10
2023-05-10T00:20:58.308Z,19.40
2023-05-10T00:21:29.798Z,18.48
2023-05-10T00:22:01.370Z,19.77
2023-05-10T00:22:33.151Z,18.45
2023-05-10T00:23:04.801Z,21.00
2023-05-10T00:23:36.390Z,24.33
2023-05-10T00:24:07.851Z,22.92
2023-05-10T00:24:39.239Z,19.77
2023-05-10T00:25:11.466Z,21.75
2023-05-10T00:25:43.161Z,19.80
2023-05-10T00:26:14.556Z,23.13
2023-05-10T00:26:46.012Z,21.65
2023-05-10T00:27:17.378Z,23.40
2023-05-10T00:27:48.868Z,21.35
2023-05-10T00:28:20.327Z,23.70
2023-05-10T00:28:51.791Z,21.27
2023-05-10T00:29:23.258Z,22.00
2023-05-10T00:29:54.644Z,24.60
2023-05-10T00:30:26.022Z,23.13
2023-05-10T00:30:57.461Z,23.52
2023-05-10T00:31:28.925Z,24.52
2023-05-10T00:32:00.391Z,24.23
2023-05-10T00:32:31.954Z,27.05
2023-05-10T00:33:04.110Z,28.90
2023-05-10T00:33:35.541Z,26.40
2023-05-10T00:34:06.869Z,27.10
2023-05-10T00:34:38.218Z,30.08
2023-05-10T00:35:09.674Z,28.35
2023-05-10T00:35:41.299Z,30.52
2023-05-10T00:36:12.844Z,28.27
2023-05-10T00:36:44.469Z,31.85
2023-05-10T00:37:16.213Z,32.53
2023-05-10T00:37:47.688Z,33.45
2023-05-10T00:38:19.417Z,30.17
2023-05-10T00:38:50.942Z,31.00
2023-05-10T00:39:22.500Z,33.10
2023-05-10T00:39:54.519Z,31.95
2023-05-10T00:40:26.175Z,33.58
2023-05-10T00:40:57.594Z,31.73
2023-05-10T00:41:29.022Z,35.22
2023-05-10T00:42:01.229Z,32.72
2023-05-10T00:42:32.734Z,32.90
2023-05-10T00:43:04.291Z,34.58
2023-05-10T00:43:35.630Z,35.83
2023-05-10T00:44:07.293Z,36.53
2023-05-10T00:44:38.874Z,37.60
2023-05-10T00:45:10.614Z,38.45
2023-05-10T00:45:42.504Z,42.30
2023-05-10T00:46:16.477Z,38.13
2023-05-10T00:46:49.402Z,39.58
2023-05-10T00:47:20.948Z,38.40
2023-05-10T00:47:56.078Z,36.65
2023-05-10T00:48:27.774Z,36.42
2023-05-10T00:48:59.348Z,38.92
2023-05-10T00:49:31.221Z,36.87
2023-05-10T00:50:03.157Z,36.22
2023-05-10T00:50:34.850Z,44.85
2023-05-10T00:51:07.064Z,36.25
2023-05-10T00:51:38.610Z,38.40
2023-05-10T00:52:10.787Z,39.58
2023-05-10T00:52:43.685Z,43.33
2023-05-10T00:53:16.305Z,42.00
2023-05-10T00:53:47.927Z,39.33
2023-05-10T00:54:19.596Z,42.67
2023-05-10T00:54:53.124Z,40.60
2023-05-10T00:55:24.936Z,42.22
2023-05-10T00:55:56.481Z,40.72
2023-05-10T00:56:29.349Z,39.58
2023-05-10T00:57:00.764Z,42.08
2023-05-10T00:57:32.772Z,40.60
2023-05-10T00:58:06.338Z,37.58
2023-05-10T00:58:37.906Z,42.53
2023-05-10T00:59:10.617Z,39.47
2023-05-10T00:59:42.110Z,43.88
2023-05-10T01:00:18.823Z,38.63
2023-05-10T01:00:51.494Z,43.50
2023-05-10T01:01:23.191Z,41.65
2023-05-10T01:01:54.888Z,44.58
2023-05-10T01:02:26.628Z,43.47
2023-05-10T01:02:59.010Z,41.95
2023-05-10T01:03:30.776Z,46.17
2023-05-10T01:04:04.152Z,45.95
2023-05-10T01:04:36.463Z,42.05
2023-05-10T01:05:08.069Z,47.97
2023-05-10T01:05:39.508Z,49.40
2023-05-10T01:06:11.225Z,47.45
2023-05-10T01:06:43.043Z,45.33
2023-05-10T01:07:14.404Z,47.58
2023-05-10T01:07:45.755Z,48.53
2023-05-10T01:08:17.590Z,49.92
2023-05-10T01:08:48.987Z,48.58
2023-05-10T01:09:21.185Z,49.63
2023-05-10T01:09:52.767Z,47.00
2023-05-10T01:10:24.597Z,45.33
2023-05-10T01:10:56.317Z,47.00
2023-05-10T01:11:27.999Z,47.65
2023-05-10T01:12:02.473Z,47.83
2023-05-10T01:12:40.896Z,47.40
2023-05-10T01:13:13.620Z,47.85
2023-05-10T01:13:57.669Z,49.58
2023-05-10T01:14:29.837Z,45.80
2023-05-10T01:15:02.573Z,44.03
2023-05-10T01:15:34.733Z,53.92
2023-05-10T01:16:07.936Z,47.45
2023-05-10T01:16:41.810Z,48.73
2023-05-10T01:17:13.554Z,49.65
2023-05-10T01:17:47.516Z,48.45
2023-05-10T01:18:22.068Z,51.13
2023-05-10T01:18:53.892Z,48.70
2023-05-10T01:19:27.575Z,50.88
2023-05-10T01:19:59.086Z,47.58
2023-05-10T01:20:37.519Z,50.85
2023-05-10T01:21:20.580Z,44.72
2023-05-10T01:22:16.638Z,47.60
2023-05-10T01:23:31.975Z,44.57
2023-05-10T01:24:15.969Z,45.33
2023-05-10T01:25:20.867Z,45.30
2023-05-10T01:26:01.540Z,43.88
2023-05-10T01:26:47.766Z,45.47
2023-05-10T01:27:30.975Z,42.78
2023-05-10T01:28:02.314Z,46.40
2023-05-10T01:28:50.980Z,47.22
2023-05-10T01:30:13.990Z,45.45
2023-05-10T01:31:24.621Z,42.13
2023-05-10T01:32:26.750Z,44.67
2023-05-10T01:33:22.969Z,41.90
2023-05-10T01:34:03.727Z,46.92
2023-05-10T01:34:55.681Z,48.63
2023-05-10T01:35:35.506Z,47.08
2023-05-10T01:36:17.113Z,44.55
2023-05-10T01:37:03.868Z,44.38
2023-05-10T01:37:43.770Z,46.42
2023-05-10T01:38:47.474Z,45.03
2023-05-10T01:39:27.640Z,46.78
2023-05-10T01:40:17.195Z,45.77
2023-05-10T01:41:02.495Z,45.47
2023-05-10T01:41:56.535Z,45.80
2023-05-10T01:42:34.744Z,45.63
2023-05-10T01:43:12.115Z,49.55
2023-05-10T01:44:19.816Z,42.30
2023-05-10T01:44:59.332Z,47.30
2023-05-10T01:45:51.799Z,48.80
2023-05-10T01:46:34.345Z,52.67
2023-05-10T01:47:11.684Z,47.53
2023-05-10T01:47:45.685Z,46.83
2023-05-10T01:48:20.407Z,48.83
2023-05-10T01:48:56.809Z,47.22
2023-05-10T01:49:32.924Z,50.17
2023-05-10T01:50:07.767Z,49.85
2023-05-10T01:50:44.590Z,54.08
2023-05-10T01:51:24.764Z,52.97
2023-05-10T01:52:04.423Z,54.28
2023-05-10T01:52:41.803Z,52.72
2023-05-10T01:53:16.483Z,53.40
2023-05-10T01:53:49.911Z,50.30
2023-05-10T01:54:23.663Z,51.63
2023-05-10T01:55:00.981Z,52.95
2023-05-10T01:55:35.914Z,51.10
2023-05-10T01:56:09.219Z,51.50
2023-05-10T01:56:42.958Z,52.75
2023-05-10T01:57:15.345Z,54.05
2023-05-10T01:57:51.832Z,51.13
2023-05-10T01:58:31.531Z,54.33
2023-05-10T01:59:08.893Z,51.80
2023-05-10T01:59:44.043Z,46.97
2023-05-10T02:00:17.224Z,50.35
2023-05-10T02:00:51.490Z,48.60
2023-05-10T02:01:24.005Z,55.38
2023-05-10T02:01:59.809Z,47.25
2023-05-10T02:02:37.669Z,48.33
2023-05-10T02:03:11.325Z,57.17
2023-05-10T02:03:44.502Z,46.70
2023-05-10T02:04:18.410Z,49.00
2023-05-10T02:04:51.613Z,56.25
2023-05-10T02:05:23.859Z,50.73
2023-05-10T02:05:57.191Z,53.20
2023-05-10T02:06:29.213Z,50.28
2023-05-10T02:07:00.879Z,53.47
2023-05-10T02:07:34.121Z,49.22
2023-05-10T02:08:08.184Z,50.72
2023-05-10T02:08:41.263Z,53.13
2023-05-10T02:09:13.964Z,48.97
2023-05-10T02:09:50.432Z,51.45
2023-05-10T02:10:21.874Z,50.85
2023-05-10T02:10:55.785Z,50.77
2023-05-10T02:11:29.125Z,54.25
2023-05-10T02:12:04.287Z,51.95
2023-05-10T02:12:48.316Z,53.45
2023-05-10T02:13:20.663Z,49.15
2023-05-10T02:13:54.565Z,47.15
2023-05-10T02:14:27.917Z,51.10
2023-05-10T02:15:03.768Z,51.30
2023-05-10T02:15:36.146Z,55.22
2023-05-10T02:16:08.336Z,48.85
2023-05-10T02:16:41.510Z,48.17
2023-05-10T02:17:14.404Z,51.05
2023-05-10T02:17:47.528Z,49.17
2023-05-10T02:18:19.612Z,51.78
2023-05-10T02:18:53.104Z,50.97
2023-05-10T02:19:25.216Z,52.45
2023-05-10T02:19:57.905Z,51.90
2023-05-10T02:20:32.051Z,50.92
2023-05-10T02:21:04.284Z,50.85
2023-05-10T02:21:37.215Z,52.83
2023-05-10T02:22:10.342Z,55.27
2023-05-10T02:22:43.781Z,52.55
2023-05-10T02:23:17.850Z,49.53
2023-05-10T02:23:51.076Z,53.65
2023-05-10T02:24:25.269Z,51.78
2023-05-10T02:25:00.358Z,51.65
2023-05-10T02:25:33.553Z,52.20
2023-05-10T02:26:07.261Z,50.40
2023-05-10T02:26:39.524Z,49.53
2023-05-10T02:27:12.319Z,51.30
2023-05-10T02:27:45.619Z,52.00
2023-05-10T02:28:18.089Z,53.22
2023-05-10T02:28:51.164Z,50.35
2023-05-10T02:29:26.075Z,49.65
2023-05-10T02:29:58.934Z,53.15
2023-05-10T02:30:33.385Z,50.83
2023-05-10T02:31:06.971Z,56.38
2023-05-10T02:31:39.800Z,52.83
2023-05-10T02:32:12.978Z,56.53
2023-05-10T02:32:45.527Z,54.80
2023-05-10T02:33:18.545Z,50.10
2023-05-10T02:33:50.651Z,57.67
2023-05-10T02:34:26.030Z,53.60
2023-05-10T02:34:58.353Z,53.63
2023-05-10T02:35:29.837Z,52.70
2023-05-10T02:36:03.573Z,53.55
2023-05-10T02:36:36.348Z,56.42
2023-05-10T02:37:08.030Z,55.38
2023-05-10T02:37:40.727Z,52.72
2023-05-10T02:38:13.487Z,55.38
2023-05-10T02:38:46.490Z,54.27
2023-05-10T02:39:20.394Z,55.58
2023-05-10T02:39:54.805Z,60.90
2023-05-10T02:40:28.838Z,57.00
2023-05-10T02:41:00.522Z,57.45
2023-05-10T02:41:33.712Z,58.30
2023-05-10T02:42:06.523Z,59.65
2023-05-10T02:42:39.714Z,52.88
2023-05-10T02:43:15.332Z,55.22
2023-05-10T02:43:48.050Z,52.75
2023-05-10T02:44:21.376Z,54.83
2023-05-10T02:44:55.539Z,54.00
2023-05-10T02:45:31.319Z,53.88
2023-05-10T02:46:03.287Z,50.55
2023-05-10T02:46:35.020Z,50.70
2023-05-10T02:47:06.460Z,51.38
2023-05-10T02:47:38.065Z,53.85
2023-05-10T02:48:09.574Z,53.60
2023-05-10T02:48:41.024Z,54.15
2023-05-10T02:49:12.614Z,52.35
2023-05-10T02:49:44.146Z,55.60
2023-05-10T02:50:16.033Z,53.60
2023-05-10T02:50:52.265Z,52.42
2023-05-10T02:51:29.164Z,51.88
2023-05-10T02:52:05.754Z,51.67
2023-05-10T02:52:48.115Z,54.28
2023-05-10T02:53:23.894Z,52.65
2023-05-10T02:53:57.557Z,54.88
2023-05-10T02:54:32.820Z,52.55
2023-05-10T02:55:06.805Z,51.65
2023-05-10T02:55:43.101Z,53.73
2023-05-10T02:56:25.916Z,57.97
2023-05-10T02:57:04.872Z,53.97
2023-05-10T02:57:42.282Z,56.00
2023-05-10T02:58:13.694Z,56.20
2023-05-10T02:58:45.033Z,61.15
2023-05-10T02:59:16.475Z,59.00
2023-05-10T02:59:47.905Z,61.92
2023-05-10T03:00:19.516Z,56.25
2023-05-10T03:00:51.367Z,54.53
2023-05-10T03:01:22.888Z,60.17
2023-05-10T03:01:54.714Z,57.00
2023-05-10T03:02:26.215Z,55.50
2023-05-10T03:02:58.541Z,60.00
2023-05-10T03:03:30.010Z,57.72
2023-05-10T03:04:01.847Z,61.88
2023-05-10T03:04:33.254Z,54.30
2023-05-10T03:05:04.981Z,63.17
2023-05-10T03:05:36.360Z,61.63
2023-05-10T03:06:07.752Z,57.20
2023-05-10T03:06:39.166Z,56.80
2023-05-10T03:07:10.924Z,57.13
2023-05-10T03:07:42.354Z,64.45
2023-05-10T03:08:13.874Z,61.38
2023-05-10T03:08:46.345Z,57.60
2023-05-10T03:09:17.794Z,60.70
2023-05-10T03:09:50.309Z,59.22
2023-05-10T03:10:28.419Z,60.65
2023-05-10T03:11:06.358Z,62.35
2023-05-10T03:12:04.846Z,62.15
2023-05-10T03:12:57.581Z,63.27
2023-05-10T03:13:29.070Z,62.65
2023-05-10T03:14:32.079Z,63.53
2023-05-10T03:15:20.546Z,64.32
2023-05-10T03:16:13.120Z,66.80
2023-05-10T03:16:53.369Z,69.30
2023-05-10T03:17:31.888Z,73.55
2023-05-10T03:18:09.032Z,63.63
2023-05-10T03:18:45.541Z,66.57
2023-05-10T03:19:35.693Z,67.32
2023-05-10T03:20:12.687Z,63.77
2023-05-10T03:20:49.261Z,64.97
2023-05-10T03:21:24.047Z,71.55
2023-05-10T03:22:00.833Z,68.28
2023-05-10T03:22:37.119Z,68.65
2023-05-10T03:23:23.531Z,70.63
2023-05-10T03:24:01.357Z,68.57
2023-05-10T03:24:35.240Z,67.30
2023-05-10T03:25:09.250Z,70.88
2023-05-10T03:25:41.953Z,65.88
2023-05-10T03:26:21.443Z,69.43
2023-05-10T03:26:56.633Z,71.57
2023-05-10T03:27:28.934Z,64.88
2023-05-10T03:28:02.668Z,71.63
2023-05-10T03:28:35.858Z,67.30
2023-05-10T03:29:09.004Z,69.07
2023-05-10T03:29:40.626Z,68.35
2023-05-10T03:30:13.771Z,68.05
2023-05-10T03:30:46.316Z,76.82
2023-05-10T03:31:18.691Z,65.65
2023-05-10T03:31:50.896Z,66.80
2023-05-10T03:32:23.378Z,66.57
2023-05-10T03:32:55.162Z,69.15
2023-05-10T03:33:26.753Z,70.18
2023-05-10T03:33:58.137Z,69.18
2023-05-10T03:34:31.402Z,72.75
2023-05-10T03:35:10.813Z,74.68
2023-05-10T03:35:42.408Z,69.50
2023-05-10T03:36:13.721Z,71.25
2023-05-10T03:36:45.171Z,75.07
2023-05-10T03:37:16.559Z,72.70
2023-05-10T03:37:48.402Z,70.13
2023-05-10T03:38:19.743Z,70.22
2023-05-10T03:38:51.232Z,69.63
2023-05-10T03:39:22.728Z,68.53
2023-05-10T03:39:54.195Z,67.20
2023-05-10T03:40:27.013Z,74.43
2023-05-10T03:40:58.358Z,73.47
2023-05-10T03:41:30.277Z,68.93
2023-05-10T03:42:01.860Z,70.88
2023-05-10T03:42:33.255Z,65.90
2023-05-10T03:43:05.019Z,67.63
2023-05-10T03:43:36.500Z,69.97
2023-05-10T03:44:07.868Z,66.40
2023-05-10T03:44:40.771Z,69.40
2023-05-10T03:45:12.170Z,73.07
2023-05-10T03:45:43.517Z,72.70
2023-05-10T03:46:14.913Z,74.13
2023-05-10T03:46:46.458Z,69.05
2023-05-10T03:47:17.904Z,71.50
2023-05-10T03:47:49.302Z,69.77
2023-05-10T03:48:20.692Z,73.18
2023-05-10T03:48:52.063Z,64.28
2023-05-10T03:49:24.070Z,68.47
2023-05-10T03:49:55.418Z,68.20
2023-05-10T03:50:27.263Z,67.72
2023-05-10T03:50:58.620Z,74.03
2023-05-10T03:51:31.980Z,67.95
2023-05-10T03:52:03.451Z,71.90
2023-05-10T03:52:34.856Z,67.07
2023-05-10T03:53:06.393Z,82.73
2023-05-10T03:53:37.796Z,72.63
2023-05-10T03:54:09.165Z,73.65
2023-05-10T03:54:40.624Z,70.40
2023-05-10T03:55:12.017Z,65.68
2023-05-10T03:55:43.402Z,72.10
2023-05-10T03:56:14.829Z,65.15
2023-05-10T03:56:47.430Z,69.28
2023-05-10T03:57:18.794Z,77.38
2023-05-10T03:57:54.658Z,70.05
2023-05-10T03:58:26.210Z,70.00
2023-05-10T03:58:57.628Z,67.43
2023-05-10T03:59:29.042Z,67.68
2023-05-10T04:00:00.730Z,68.47
2023-05-10T04:00:33.443Z,70.25
2023-05-10T04:01:04.885Z,70.70
2023-05-10T04:01:36.336Z,70.38
2023-05-10T04:02:07.982Z,71.60
2023-05-10T04:02:39.519Z,76.20
2023-05-10T04:03:11.511Z,72.32
2023-05-10T04:03:43.067Z,72.47
2023-05-10T04:04:14.486Z,76.75
2023-05-10T04:04:46.066Z,74.10
2023-05-10T04:05:17.449Z,78.63
2023-05-10T04:05:48.870Z,80.25
2023-05-10T04:06:20.472Z,78.10
2023-05-10T04:06:51.968Z,78.38
2023-05-10T04:07:23.427Z,77.25
2023-05-10T04:07:54.882Z,75.80
2023-05-10T04:08:26.716Z,75.65
2023-05-10T04:09:00.743Z,82.67
2023-05-10T04:09:32.350Z,72.75
2023-05-10T04:10:04.056Z,71.47
2023-05-10T04:10:35.702Z,75.93
2023-05-10T04:11:12.000Z,80.90
2023-05-10T04:11:43.648Z,80.07
2023-05-10T04:12:15.029Z,73.30
2023-05-10T04:12:46.633Z,76.43
2023-05-10T04:13:18.085Z,82.53
2023-05-10T04:13:49.625Z,68.80
2023-05-10T04:14:21.187Z,70.77
2023-05-10T04:14:52.762Z,76.93
2023-05-10T04:15:24.191Z,79.53
2023-05-10T04:15:55.717Z,71.97
2023-05-10T04:16:27.088Z,80.32
2023-05-10T04:16:58.555Z,75.18
2023-05-10T04:17:30.293Z,77.65
2023-05-10T04:18:01.923Z,78.15
2023-05-10T04:18:33.714Z,72.80
2023-05-10T04:19:05.424Z,74.88
2023-05-10T04:19:36.920Z,68.57
2023-05-10T04:20:09.280Z,74.18
2023-05-10T04:20:40.665Z,71.07
2023-05-10T04:21:14.260Z,75.30
2023-05-10T04:21:46.263Z,72.15
2023-05-10T04:22:18.569Z,75.97
2023-05-10T04:22:49.989Z,72.10
2023-05-10T04:23:21.381Z,71.05
2023-05-10T04:23:52.688Z,67.70
2023-05-10T04:24:25.431Z,67.93
2023-05-10T04:24:56.838Z,73.00
2023-05-10T04:25:28.179Z,70.68
2023-05-10T04:26:03.256Z,72.13
2023-05-10T04:26:34.686Z,73.63
2023-05-10T04:27:06.067Z,68.43
2023-05-10T04:27:37.857Z,70.22
2023-05-10T04:28:09.552Z,69.35
2023-05-10T04:28:40.997Z,74.85
2023-05-10T04:29:12.575Z,71.13
2023-05-10T04:29:43.991Z,80.20
2023-05-10T04:30:15.869Z,70.13
2023-05-10T04:30:47.393Z,64.55
2023-05-10T04:31:18.910Z,75.00
2023-05-10T04:31:50.354Z,73.60
2023-05-10T04:32:21.849Z,72.10
2023-05-10T04:32:53.315Z,72.70
2023-05-10T04:33:24.684Z,71.30
2023-05-10T04:33:56.089Z,65.70
2023-05-10T04:34:27.526Z,67.57
2023-05-10T04:34:59.144Z,71.45
2023-05-10T04:35:30.491Z,73.83
2023-05-10T04:36:02.566Z,65.00
2023-05-10T04:36:36.302Z,73.57
2023-05-10T04:37:08.568Z,69.10
2023-05-10T04:37:39.964Z,70.25
2023-05-10T04:38:11.435Z,72.53
2023-05-10T04:38:43.662Z,74.22
2023-05-10T04:39:15.066Z,69.38
2023-05-10T04:39:46.575Z,75.35
2023-05-10T04:40:18.285Z,72.90
2023-05-10T04:40:49.883Z,74.47
2023-05-10T04:41:21.648Z,74.63
2023-05-10T04:41:53.033Z,73.95
2023-05-10T04:42:24.393Z,73.22
2023-05-10T04:42:55.832Z,71.25
2023-05-10T04:43:27.212Z,74.50
2023-05-10T04:43:58.616Z,78.53
2023-05-10T04:44:30.641Z,74.90
2023-05-10T04:45:02.093Z,71.20
2023-05-10T04:45:33.426Z,72.70
2023-05-10T04:46:05.882Z,73.67
2023-05-10T04:46:37.349Z,67.70
2023-05-10T04:47:11.152Z,73.72
2023-05-10T04:47:43.935Z,67.28
2023-05-10T04:48:15.413Z,73.63
2023-05-10T04:48:46.930Z,73.05
2023-05-10T04:49:18.805Z,75.30
2023-05-10T04:49:50.209Z,70.43
2023-05-10T04:50:21.645Z,69.32
2023-05-10T04:50:53.169Z,70.07
2023-05-10T04:51:24.597Z,70.40
2023-05-10T04:51:56.410Z,74.75
2023-05-10T04:52:27.790Z,74.43
2023-05-10T04:52:59.144Z,71.28
2023-05-10T04:53:31.006Z,68.80
2023-05-10T04:54:06.621Z,76.63
2023-05-10T04:54:38.415Z,73.78
2023-05-10T04:55:10.805Z,75.50
2023-05-10T04:55:42.157Z,76.90
2023-05-10T04:56:13.552Z,70.88
2023-05-10T04:56:45.001Z,73.33
2023-05-10T04:57:16.445Z,72.97
2023-05-10T04:57:47.837Z,71.05
2023-05-10T04:58:19.237Z,70.78
2023-05-10T04:58:50.855Z,68.22
2023-05-10T04:59:22.308Z,66.63
2023-05-10T04:59:53.731Z,71.30
2023-05-10T05:00:25.610Z,71.13
2023-05-10T05:00:57.039Z,70.75
2023-05-10T05:01:28.414Z,76.53
2023-05-10T05:01:59.920Z,71.47
2023-05-10T05:02:31.903Z,79.78
2023-05-10T05:03:03.472Z,72.93
2023-05-10T05:03:35.135Z,73.75
2023-05-10T05:04:06.567Z,74.25
2023-05-10T05:04:37.982Z,72.60
2023-05-10T05:05:09.496Z,77.93
2023-05-10T05:05:40.957Z,76.95
2023-05-10T05:06:12.334Z,71.65
2023-05-10T05:06:44.052Z,77.28
2023-05-10T05:07:15.700Z,73.83
2023-05-10T05:07:47.086Z,65.82
2023-05-10T05:08:18.530Z,74.63
2023-05-10T05:08:50.629Z,74.85
2023-05-10T05:09:22.094Z,77.00
2023-05-10T05:09:54.157Z,74.30
2023-05-10T05:10:25.582Z,84.97
2023-05-10T05:10:56.911Z,78.30
2023-05-10T05:11:28.334Z,71.22
2023-05-10T05:11:59.800Z,74.80
2023-05-10T05:12:31.302Z,71.83
2023-05-10T05:13:03.061Z,78.18
2023-05-10T05:13:34.529Z,74.00
2023-05-10T05:14:05.867Z,77.35
2023-05-10T05:14:37.228Z,72.78
2023-05-10T05:15:10.282Z,78.38
2023-05-10T05:15:41.742Z,76.03
2023-05-10T05:16:13.175Z,72.30
2023-05-10T05:16:44.583Z,79.72
2023-05-10T05:17:16.248Z,73.75
2023-05-10T05:17:47.941Z,80.67
2023-05-10T05:18:19.377Z,79.15
2023-05-10T05:18:50.828Z,85.93
2023-05-10T05:19:22.419Z,82.68
2023-05-10T05:19:54.244Z,75.72
2023-05-10T05:20:25.717Z,82.43
2023-05-10T05:20:57.054Z,82.43
2023-05-10T05:21:28.493Z,76.10
2023-05-10T05:21:59.837Z,78.38
2023-05-10T05:22:31.333Z,76.30
2023-05-10T05:23:02.923Z,84.33
2023-05-10T05:23:34.306Z,78.80
2023-05-10T05:24:06.332Z,77.03
2023-05-10T05:24:41.007Z,90.35
2023-05-10T05:25:12.740Z,81.30
2023-05-10T05:25:44.203Z,83.88
2023-05-10T05:26:16.134Z,88.55
2023-05-10T05:26:48.048Z,81.53
2023-05-10T05:27:19.424Z,79.88
2023-05-10T05:27:50.955Z,85.25
2023-05-10T05:28:24.812Z,79.13
2023-05-10T05:28:56.272Z,80.13
2023-05-10T05:29:27.592Z,78.07
2023-05-10T05:29:59.657Z,83.47
2023-05-10T05:30:31.007Z,78.85
2023-05-10T05:31:02.370Z,77.03
2023-05-10T05:31:33.721Z,83.40
2023-05-10T05:32:05.521Z,80.07
2023-05-10T05:32:36.990Z,76.50
2023-05-10T05:33:08.523Z,80.00
2023-05-10T05:33:39.968Z,84.53
2023-05-10T05:34:11.285Z,77.47
2023-05-10T05:34:42.683Z,82.18
2023-05-10T05:35:14.268Z,79.50
2023-05-10T05:35:51.477Z,79.38
2023-05-10T05:36:22.886Z,84.93
2023-05-10T05:36:54.801Z,81.05
2023-05-10T05:37:26.187Z,76.40
2023-05-10T05:37:57.567Z,86.93
2023-05-10T05:38:28.993Z,80.80
2023-05-10T05:39:00.322Z,81.10
2023-05-10T05:39:31.676Z,73.60
2023-05-10T05:40:03.562Z,84.95
2023-05-10T05:40:35.023Z,77.43
2023-05-10T05:41:06.375Z,77.80
2023-05-10T05:41:37.806Z,80.07
2023-05-10T05:42:10.268Z,77.82
2023-05-10T05:42:42.209Z,76.25
2023-05-10T05:43:14.412Z,70.93
2023-05-10T05:43:45.749Z,71.65
2023-05-10T05:44:17.150Z,70.80
2023-05-10T05:44:48.524Z,68.00
2023-05-10T05:45:20.081Z,76.72
2023-05-10T05:45:54.140Z,71.55
2023-05-10T05:46:25.752Z,74.50
2023-05-10T05:46:57.228Z,71.60
2023-05-10T05:47:28.633Z,75.25
2023-05-10T05:48:00.479Z,72.20
2023-05-10T05:48:32.148Z,75.45
2023-05-10T05:49:03.734Z,66.72
2023-05-10T05:49:35.086Z,70.37
2023-05-10T05:50:07.155Z,76.05
2023-05-10T05:50:38.502Z,73.90
2023-05-10T05:51:09.871Z,76.85
2023-05-10T05:51:41.243Z,70.70
2023-05-10T05:52:12.687Z,65.72
2023-05-10T05:52:44.089Z,69.93
2023-05-10T05:53:15.640Z,68.47
2023-05-10T05:53:47.048Z,67.85
2023-05-10T05:54:18.460Z,66.25
2023-05-10T05:54:49.824Z,69.63
2023-05-10T05:55:21.144Z,70.80
2023-05-10T05:55:56.788Z,73.05
2023-05-10T05:56:28.119Z,62.78
2023-05-10T05:57:01.308Z,70.55
2023-05-10T05:57:33.082Z,69.75
2023-05-10T05:58:04.624Z,66.22
2023-05-10T05:58:36.456Z,70.20
2023-05-10T05:59:07.891Z,73.28
2023-05-10T05:59:44.581Z,64.63
2023-05-10T06:00:16.456Z,70.37
2023-05-10T06:00:47.849Z,68.47
2023-05-10T06:01:19.351Z,71.70
2023-05-10T06:01:50.774Z,69.65
2023-05-10T06:02:25.182Z,70.82
2023-05-10T06:02:56.913Z,73.00
2023-05-10T06:03:28.413Z,68.45
2023-05-10T06:03:59.866Z,65.70
2023-05-10T06:04:31.426Z,67.18
2023-05-10T06:05:03.358Z,66.72
2023-05-10T06:05:34.693Z,68.90
2023-05-10T06:06:06.334Z,69.85
2023-05-10T06:06:37.761Z,64.07
2023-05-10T06:07:09.121Z,64.18
2023-05-10T06:07:43.114Z,57.67
2023-05-10T06:08:14.627Z,67.57
2023-05-10T06:08:45.953Z,61.03
2023-05-10T06:09:17.383Z,66.53
2023-05-10T06:09:48.762Z,64.97
2023-05-10T06:10:20.391Z,56.28
2023-05-10T06:10:51.777Z,59.77
2023-05-10T06:11:23.827Z,60.03
2023-05-10T06:11:55.209Z,55.35
2023-05-10T06:12:26.543Z,55.53
2023-05-10T06:12:57.938Z,47.95
2023-05-10T06:13:33.905Z,54.53
2023-05-10T06:14:05.834Z,53.90
2023-05-10T06:14:37.216Z,51.28
2023-05-10T06:15:09.361Z,47.50
2023-05-10T06:15:41.128Z,47.25
2023-05-10T06:16:13.142Z,49.93
2023-05-10T06:16:44.521Z,47.78
2023-05-10T06:17:15.921Z,49.05
2023-05-10T06:17:48.145Z,51.47
2023-05-10T06:18:19.692Z,48.85
2023-05-10T06:18:51.072Z,50.95
2023-05-10T06:19:22.593Z,59.55
2023-05-10T06:19:54.162Z,56.83
2023-05-10T06:20:26.011Z,56.08
2023-05-10T06:20:57.374Z,58.95
2023-05-10T06:21:28.769Z,57.80
2023-05-10T06:22:00.217Z,62.10
2023-05-10T06:22:31.566Z,58.42
2023-05-10T06:23:02.913Z,63.45
2023-05-10T06:23:34.309Z,58.63
2023-05-10T06:24:07.772Z,60.78
2023-05-10T06:24:39.164Z,59.63
2023-05-10T06:25:10.971Z,64.57
2023-05-10T06:25:42.626Z,58.17
2023-05-10T06:26:14.823Z,61.10
2023-05-10T06:26:46.245Z,58.30
2023-05-10T06:27:18.202Z,55.83
2023-05-10T06:27:53.486Z,61.95
2023-05-10T06:28:25.339Z,57.20
2023-05-10T06:28:56.798Z,57.63
2023-05-10T06:29:28.269Z,61.03
2023-05-10T06:30:11.621Z,64.47
2023-05-10T06:30:44.183Z,54.78
2023-05-10T06:31:15.572Z,55.38
2023-05-10T06:31:47.386Z,55.55
2023-05-10T06:32:18.914Z,58.20
2023-05-10T06:32:50.717Z,52.47
2023-05-10T06:33:22.178Z,50.50
2023-05-10T06:33:56.075Z,56.88
2023-05-10T06:34:28.204Z,52.63
2023-05-10T06:34:59.568Z,50.00
2023-05-10T06:35:32.395Z,56.20
2023-05-10T06:36:04.275Z,52.72
2023-05-10T06:36:35.672Z,50.63
2023-05-10T06:37:07.203Z,47.95
2023-05-10T06:37:38.702Z,48.47
2023-05-10T06:38:10.138Z,52.55
2023-05-10T06:38:41.723Z,50.83
2023-05-10T06:39:13.246Z,49.78
2023-05-10T06:39:44.618Z,50.08
2023-05-10T06:40:16.497Z,53.00
2023-05-10T06:40:48.219Z,52.45
2023-05-10T06:41:19.671Z,47.47
2023-05-10T06:41:51.228Z,50.55
2023-05-10T06:42:22.673Z,46.78
2023-05-10T06:42:54.044Z,43.60
2023-05-10T06:43:27.115Z,47.45
2023-05-10T06:43:58.438Z,42.28
2023-05-10T06:44:29.749Z,47.15
2023-05-10T06:45:01.272Z,45.08
2023-05-10T06:45:32.610Z,40.08
2023-05-10T06:46:04.052Z,43.88
2023-05-10T06:46:36.138Z,41.83
2023-05-10T06:47:07.527Z,38.58
2023-05-10T06:47:39.448Z,40.40
2023-05-10T06:48:11.118Z,44.07
2023-05-10T06:48:42.509Z,39.78
2023-05-10T06:49:13.908Z,37.67
2023-05-10T06:49:45.322Z,43.72
2023-05-10T06:50:16.875Z,44.00
2023-05-10T06:50:48.226Z,36.33
2023-05-10T06:51:19.552Z,42.47
2023-05-10T06:51:50.977Z,40.13
2023-05-10T06:52:22.486Z,39.38
2023-05-10T06:52:53.929Z,34.22
2023-05-10T06:53:25.401Z,40.63
2023-05-10T06:53:56.725Z,36.03
2023-05-10T06:54:28.102Z,44.55
2023-05-10T06:54:59.595Z,35.30
2023-05-10T06:55:31.047Z,38.95
2023-05-10T06:56:04.547Z,38.92
2023-05-10T06:56:36.167Z,38.15
2023-05-10T06:57:16.147Z,36.10
2023-05-10T06:57:55.150Z,31.48
2023-05-10T06:58:26.456Z,36.53
2023-05-10T06:58:57.782Z,34.90
2023-05-10T06:59:29.283Z,34.25
2023-05-10T07:00:00.887Z,32.92
2023-05-10T07:00:32.508Z,31.30
2023-05-10T07:01:05.150Z,30.23
2023-05-10T07:01:36.571Z,29.30
2023-05-10T07:02:08.135Z,32.63
2023-05-10T07:02:39.502Z,33.25
2023-05-10T07:03:11.718Z,29.65
2023-05-10T07:03:43.293Z,30.70
2023-05-10T07:04:14.770Z,27.33
2023-05-10T07:04:48.867Z,28.88
2023-05-10T07:05:21.211Z,26.48
2023-05-10T07:05:52.827Z,30.27
2023-05-10T07:06:33.028Z,32.38
2023-05-10T07:07:05.297Z,28.23
2023-05-10T07:07:36.853Z,29.05
2023-05-10T07:08:08.403Z,25.65
2023-05-10T07:08:39.748Z,30.33
2023-05-10T07:09:11.132Z,28.55